Time;durP1;ratioP1;P1;durP2;ratioP2;P2;SDS_P1;SDS_P2;PMS_P1;PMS_P2;Temp;Humidity;BMP_temperature;BMP_pressure;BME280_temperature;BME280_humidity;BME280_pressure;Samples;Min_cycle;Max_cycle;Signal;HPM_P1;HPM_P2
2020/12/06 00:01:05;;;;;;;2.97;0.90;;;;;;;11.64;57.01;99880.63;4999228;28;20038;-46
2020/12/06 00:03:33;;;;;;;2.75;0.93;;;;;;;11.56;56.35;99883.03;5000456;28;20048;-52
2020/12/06 00:05:58;;;;;;;1.42;0.70;;;;;;;11.70;56.70;99879.53;4998994;28;20523;-52
2020/12/06 00:08:24;;;;;;;1.75;0.70;;;;;;;11.69;55.38;99877.94;5000881;28;20099;-48
2020/12/06 00:10:49;;;;;;;2.13;0.80;;;;;;;11.67;55.84;99874.69;4998924;28;20069;-45
2020/12/06 00:13:15;;;;;;;1.38;0.55;;;;;;;11.64;55.93;99875.25;5000727;28;20030;-48
2020/12/06 00:15:40;;;;;;;1.30;0.50;;;;;;;11.57;53.96;99868.53;4999083;28;20034;-54
2020/12/06 00:18:05;;;;;;;0.90;0.68;;;;;;;11.77;54.93;99875.81;4999233;28;20034;-47
2020/12/06 00:20:31;;;;;;;0.65;0.45;;;;;;;11.74;54.69;99869.06;4999985;28;20109;-50
2020/12/06 00:22:57;;;;;;;2.88;1.23;;;;;;;11.77;54.01;99870.44;4998456;28;20049;-46
2020/12/06 00:25:22;;;;;;;5.15;2.20;;;;;;;11.79;55.10;99869.06;5000649;28;20108;-45
2020/12/06 00:27:48;;;;;;;2.88;1.45;;;;;;;11.75;55.13;99867.22;4998465;28;20058;-51
2020/12/06 00:30:14;;;;;;;2.78;1.65;;;;;;;11.68;55.63;99873.63;5000102;28;20058;-47
2020/12/06 00:32:39;;;;;;;16.33;2.10;;;;;;;11.72;54.95;99869.34;4998602;28;20034;-46
2020/12/06 00:35:07;;;;;;;3.67;0.85;;;;;;;11.70;54.36;99865.31;4998638;28;20030;-46
2020/12/06 00:37:32;;;;;;;1.45;0.60;;;;;;;11.59;55.89;99859.13;4994835;28;20070;-48
2020/12/06 00:39:58;;;;;;;1.70;0.82;;;;;;;11.66;55.67;99862.38;4997945;28;20064;-46
2020/12/06 00:42:23;;;;;;;1.05;0.63;;;;;;;11.69;54.72;99872.56;5000238;28;20045;-47
2020/12/06 00:44:49;;;;;;;5.85;0.68;;;;;;;11.83;54.36;99872.03;4998613;28;20034;-46
2020/12/06 00:47:14;;;;;;;3.42;0.60;;;;;;;11.80;54.29;99868.00;4999524;28;20399;-46
2020/12/06 00:49:40;;;;;;;0.85;0.40;;;;;;;11.82;53.87;99878.50;4998544;28;20054;-46
2020/12/06 00:52:05;;;;;;;0.32;0.10;;;;;;;11.69;51.89;99864.53;4998588;28;20395;-48
2020/12/06 00:54:31;;;;;;;0.75;0.50;;;;;;;11.70;51.14;99871.50;4999020;28;20037;-46
2020/12/06 00:56:57;;;;;;;5.10;0.90;;;;;;;11.74;52.10;99869.06;4997504;28;20033;-47
2020/12/06 00:59:23;;;;;;;1.48;0.63;;;;;;;11.71;52.09;99859.69;4999663;28;20037;-48
2020/12/06 01:01:49;;;;;;;1.48;0.40;;;;;;;11.71;52.22;99865.06;4995468;28;20042;-48
2020/12/06 01:04:14;;;;;;;1.50;0.90;;;;;;;11.82;52.21;99865.06;4997678;28;20141;-46
2020/12/06 01:06:39;;;;;;;0.28;0.20;;;;;;;11.82;52.57;99875.81;4998373;28;20034;-46
2020/12/06 01:09:05;;;;;;;1.85;0.90;;;;;;;11.77;54.35;99875.81;4998143;28;20058;-46
2020/12/06 01:11:30;;;;;;;0.30;0.30;;;;;;;11.77;52.98;99881.16;4999255;28;20069;-48
2020/12/06 01:13:56;;;;;;;1.23;0.75;;;;;;;11.75;53.45;99883.31;4997876;28;20035;-46
2020/12/06 01:16:22;;;;;;;1.67;0.35;;;;;;;11.67;56.14;99884.66;4999738;28;20041;-47
2020/12/06 01:18:47;;;;;;;0.10;0.10;;;;;;;11.65;50.77;99882.22;4997826;28;20042;-46
2020/12/06 01:21:13;;;;;;;2.13;0.70;;;;;;;11.65;51.87;99878.75;4998650;28;20455;-45
2020/12/06 01:23:38;;;;;;;4.22;0.45;;;;;;;11.72;51.89;99880.06;4998086;28;20567;-47
2020/12/06 01:26:04;;;;;;;0.30;0.20;;;;;;;11.90;50.83;99878.78;4997532;28;20026;-46
2020/12/06 01:28:30;;;;;;;0.82;0.47;;;;;;;11.98;51.67;99880.13;4999240;28;20125;-47
2020/12/06 01:30:55;;;;;;;0.95;0.60;;;;;;;11.87;51.36;99873.13;4997499;28;20402;-50
2020/12/06 01:33:21;;;;;;;2.20;0.75;;;;;;;11.98;51.20;99880.13;4999019;28;20467;-48
2020/12/06 01:35:46;;;;;;;0.47;0.20;;;;;;;11.83;52.37;99910.47;4997176;28;20176;-47
2020/12/06 01:38:11;;;;;;;1.50;0.35;;;;;;;11.73;55.72;99939.97;4998583;28;20499;-46
2020/12/06 01:40:40;;;;;;;0.85;0.20;;;;;;;11.56;60.35;99947.47;4998034;28;20049;-46
2020/12/06 01:43:10;;;;;;;1.08;0.30;;;;;;;11.56;60.25;99959.00;4994500;28;20046;-45
2020/12/06 01:45:36;;;;;;;2.88;0.50;;;;;;;11.75;59.31;99955.84;4992668;28;20056;-46
2020/12/06 01:48:07;;;;;;;1.65;0.68;;;;;;;11.66;59.32;99944.81;4992902;28;20535;-48
2020/12/06 01:50:33;;;;;;;1.45;0.30;;;;;;;11.77;59.61;99937.56;4991510;28;20104;-49
2020/12/06 01:52:58;;;;;;;1.20;0.25;;;;;;;11.57;59.13;99933.78;4991977;28;20463;-46
2020/12/06 01:55:24;;;;;;;0.90;0.57;;;;;;;11.75;60.06;99928.97;4998658;28;20034;-46
2020/12/06 01:57:50;;;;;;;0.60;0.20;;;;;;;11.63;61.25;99919.28;4997037;28;20046;-44
2020/12/06 02:00:18;;;;;;;0.90;0.75;;;;;;;11.69;61.86;99914.72;4998682;28;20117;-48
2020/12/06 02:02:49;;;;;;;4.18;0.52;;;;;;;11.49;61.85;99902.06;4991144;28;20116;-47
2020/12/06 02:05:15;;;;;;;8.38;0.70;;;;;;;11.45;62.03;99899.13;4998388;28;20041;-47
2020/12/06 02:07:43;;;;;;;3.05;0.75;;;;;;;11.43;61.05;99895.91;4996086;28;20046;-44
2020/12/06 02:10:08;;;;;;;0.55;0.22;;;;;;;11.54;60.68;99885.97;4997501;28;20113;-46
2020/12/06 02:12:34;;;;;;;2.25;0.95;;;;;;;11.69;61.09;99893.22;4995609;28;20511;-46
2020/12/06 02:14:59;;;;;;;1.15;0.80;;;;;;;11.59;61.57;99891.34;4992770;28;20034;-48
2020/12/06 02:17:26;;;;;;;0.80;0.40;;;;;;;11.43;62.63;99884.34;4992386;28;20046;-50
2020/12/06 02:19:54;;;;;;;0.80;0.22;;;;;;;11.54;61.98;99880.63;4991883;28;20383;-48
2020/12/06 02:22:19;;;;;;;1.80;0.88;;;;;;;11.46;62.71;99870.38;4991917;28;20545;-48
2020/12/06 02:24:45;;;;;;;1.05;0.40;;;;;;;11.53;62.35;99863.72;4992366;28;20034;-48
2020/12/06 02:27:10;;;;;;;1.05;0.47;;;;;;;11.58;62.49;99868.25;4991742;28;20116;-54
2020/12/06 02:29:36;;;;;;;0.50;0.20;;;;;;;11.60;62.55;99863.41;4992050;28;20364;-45
2020/12/06 02:32:01;;;;;;;0.63;0.25;;;;;;;11.61;62.19;99859.69;4992068;28;20133;-49
2020/12/06 02:34:27;;;;;;;1.58;0.73;;;;;;;11.57;63.10;99863.97;4989667;28;20031;-48
2020/12/06 02:36:52;;;;;;;0.82;0.65;;;;;;;11.48;62.60;99855.66;4991976;28;20030;-48
2020/12/06 02:39:18;;;;;;;0.80;0.60;;;;;;;11.63;60.72;99848.66;4991848;28;20043;-50
2020/12/06 02:41:45;;;;;;;0.90;0.68;;;;;;;11.67;60.32;99852.44;4991923;28;20422;-46
2020/12/06 02:44:12;;;;;;;0.50;0.28;;;;;;;11.42;60.71;99855.91;4995582;28;20045;-47
2020/12/06 02:46:38;;;;;;;3.88;0.93;;;;;;;11.45;60.31;99858.06;4994562;28;20034;-46
2020/12/06 02:49:05;;;;;;;1.60;0.28;;;;;;;11.51;58.02;99849.72;4992048;28;20105;-48
2020/12/06 02:51:30;;;;;;;0.80;0.30;;;;;;;11.59;58.09;99848.41;4993157;28;20113;-48
2020/12/06 02:53:56;;;;;;;0.90;0.30;;;;;;;11.51;58.00;99843.56;4991678;28;20538;-50
2020/12/06 02:56:22;;;;;;;10.45;0.50;;;;;;;11.64;57.30;99853.78;4991950;28;20038;-48
2020/12/06 02:58:47;;;;;;;2.38;0.70;;;;;;;11.75;57.52;99857.28;4991499;28;20046;-50
2020/12/06 03:01:13;;;;;;;2.15;0.38;;;;;;;11.68;58.25;99857.53;4991669;28;20415;-47
2020/12/06 03:03:39;;;;;;;5.05;0.43;;;;;;;11.73;58.00;99848.69;4991819;28;20085;-49
2020/12/06 03:06:05;;;;;;;2.85;0.65;;;;;;;11.72;57.11;99845.16;4993844;28;20022;-47
2020/12/06 03:08:31;;;;;;;0.65;0.30;;;;;;;11.63;57.72;99841.41;4997394;28;20129;-50
2020/12/06 03:10:56;;;;;;;1.75;0.77;;;;;;;11.66;57.59;99846.25;4995961;28;20058;-46
2020/12/06 03:13:22;;;;;;;7.97;1.15;;;;;;;11.76;57.35;99850.81;4997954;28;20509;-49
2020/12/06 03:15:48;;;;;;;0.30;0.20;;;;;;;11.62;56.50;99844.38;4995561;28;20050;-48
2020/12/06 03:18:13;;;;;;;0.05;0.03;;;;;;;11.65;56.51;99850.00;4997455;28;20050;-48
2020/12/06 03:20:38;;;;;;;1.98;1.10;;;;;;;11.80;56.46;99861.81;4999316;28;20046;-50
2020/12/06 03:23:04;;;;;;;0.90;0.55;;;;;;;11.82;56.67;99851.63;4999772;28;20104;-46
2020/12/06 03:25:29;;;;;;;0.68;0.35;;;;;;;11.87;55.72;99857.00;4995381;28;20034;-50
2020/12/06 03:27:55;;;;;;;0.32;0.20;;;;;;;11.65;57.28;99849.19;4995305;28;20038;-49
2020/12/06 03:30:20;;;;;;;0.52;0.25;;;;;;;11.66;56.50;99850.81;5001602;28;20113;-49
2020/12/06 03:32:46;;;;;;;0.40;0.35;;;;;;;11.60;57.62;99851.88;5001800;28;20034;-49
2020/12/06 03:35:11;;;;;;;0.73;0.25;;;;;;;11.67;56.32;99861.28;5002695;28;20073;-54
2020/12/06 03:37:36;;;;;;;1.67;0.30;;;;;;;11.64;56.13;99871.75;5000251;28;20029;-51
2020/12/06 03:40:03;;;;;;;0.40;0.28;;;;;;;11.59;57.10;99859.13;4999454;28;20498;-53
2020/12/06 03:42:29;;;;;;;1.55;0.90;;;;;;;11.73;54.96;99867.47;4996422;28;20048;-48
2020/12/06 03:44:54;;;;;;;0.63;0.45;;;;;;;11.80;55.30;99870.69;4995125;28;20034;-51
2020/12/06 03:47:20;;;;;;;0.80;0.35;;;;;;;11.62;56.22;99863.94;4996680;28;20080;-50
2020/12/06 03:49:45;;;;;;;7.72;0.47;;;;;;;11.60;57.66;99863.41;4999482;28;20080;-51
2020/12/06 03:52:11;;;;;;;0.30;0.25;;;;;;;11.56;56.35;99856.97;5000208;28;20078;-46
2020/12/06 03:54:36;;;;;;;1.35;0.45;;;;;;;11.63;55.40;99867.47;4998560;28;20034;-49
2020/12/06 03:57:02;;;;;;;4.78;1.25;;;;;;;11.61;54.88;99865.03;4999029;28;20045;-50
2020/12/06 03:59:27;;;;;;;2.92;0.50;;;;;;;11.72;55.33;99865.84;4994125;28;20041;-49
2020/12/06 04:01:53;;;;;;;1.40;0.30;;;;;;;11.80;55.18;99869.88;4998926;28;20482;-49
2020/12/06 04:04:18;;;;;;;1.92;0.77;;;;;;;11.81;55.12;99866.13;5000769;28;20077;-49
2020/12/06 04:06:43;;;;;;;0.95;0.73;;;;;;;11.78;55.79;99855.91;4999079;28;20030;-48
2020/12/06 04:09:09;;;;;;;0.68;0.32;;;;;;;11.95;54.30;99856.47;5003976;28;20053;-49
2020/12/06 04:11:34;;;;;;;0.20;0.10;;;;;;;11.91;54.88;99852.72;4999709;28;20041;-47
2020/12/06 04:14:00;;;;;;;0.43;0.30;;;;;;;11.78;55.33;99846.00;5001760;28;20098;-50
2020/12/06 04:16:25;;;;;;;1.70;0.20;;;;;;;11.81;54.82;99858.06;5000342;28;20034;-48
2020/12/06 04:18:51;;;;;;;5.07;1.42;;;;;;;11.72;56.15;99855.91;4999054;28;20058;-46
2020/12/06 04:21:16;;;;;;;0.30;0.30;;;;;;;11.66;56.90;99867.72;5000387;28;20026;-49
2020/12/06 04:23:42;;;;;;;0.43;0.20;;;;;;;11.68;57.83;99875.53;4998605;28;20073;-49
2020/12/06 04:26:07;;;;;;;0.17;0.10;;;;;;;11.72;57.52;99871.22;4999121;28;20083;-47
2020/12/06 04:28:33;;;;;;;0.55;0.30;;;;;;;11.69;55.55;99866.38;5000175;28;20401;-46
2020/12/06 04:30:58;;;;;;;3.60;1.88;;;;;;;11.71;57.46;99865.06;5013073;28;20383;-48
2020/12/06 04:33:24;;;;;;;5.68;0.60;;;;;;;11.76;56.98;99860.75;5000719;28;20489;-45
2020/12/06 04:35:50;;;;;;;0.98;0.50;;;;;;;11.78;55.38;99862.13;4998727;28;20026;-45
2020/12/06 04:38:16;;;;;;;2.15;0.50;;;;;;;11.77;55.78;99860.50;4998265;28;20053;-49
2020/12/06 04:40:42;;;;;;;1.50;0.73;;;;;;;11.80;56.14;99856.44;4994187;28;20415;-47
2020/12/06 04:43:08;;;;;;;1.27;0.57;;;;;;;11.78;56.56;99853.22;4994049;28;20046;-47
2020/12/06 04:45:33;;;;;;;1.83;0.35;;;;;;;11.85;56.51;99854.59;4993980;28;20376;-46
2020/12/06 04:48:08;;;;;;;2.40;1.10;;;;;;;11.89;54.85;99860.22;4995750;28;20503;-45
2020/12/06 04:50:38;;;;;;;2.97;0.52;;;;;;;11.90;56.75;99872.56;4992403;28;20105;-47
2020/12/06 04:53:05;;;;;;;2.35;1.20;;;;;;;11.85;56.04;99867.19;4993653;28;20039;-46
2020/12/06 04:55:33;;;;;;;1.83;0.88;;;;;;;11.86;55.24;99876.88;4993531;28;20088;-47
2020/12/06 04:58:00;;;;;;;5.57;1.00;;;;;;;11.78;55.25;99872.03;4978883;28;20053;-45
2020/12/06 05:00:36;;;;;;;2.40;0.50;;;;;;;11.67;58.05;99868.53;5000021;28;20076;-49
2020/12/06 05:03:08;;;;;;;0.57;0.22;;;;;;;11.74;57.24;99879.81;4995521;28;20113;-48
2020/12/06 05:05:34;;;;;;;;;;;;;;;11.85;55.66;99888.69;4999742;28;20162;-46
2020/12/06 05:08:04;;;;;;;1.00;0.65;;;;;;;11.77;57.48;99883.84;4997581;28;19921;-47
2020/12/06 05:10:34;;;;;;;1.55;0.68;;;;;;;11.82;55.70;99886.56;4991752;28;20031;-46
2020/12/06 05:13:00;;;;;;;2.90;0.38;;;;;;;11.84;55.52;99893.25;4999871;28;20046;-45
2020/12/06 05:15:25;;;;;;;0.75;0.52;;;;;;;11.89;55.78;99892.47;4986120;28;20117;-45
2020/12/06 05:17:53;;;;;;;5.68;0.85;;;;;;;11.78;55.43;99896.19;4997671;28;20074;-47
2020/12/06 05:20:19;;;;;;;1.48;0.57;;;;;;;11.76;54.09;99890.28;4997500;28;20096;-49
2020/12/06 05:22:47;;;;;;;0.70;0.25;;;;;;;11.77;54.06;99897.28;4993707;28;20038;-46
2020/12/06 05:25:14;;;;;;;0.88;0.38;;;;;;;11.80;53.38;99894.03;4993277;28;20057;-48
2020/12/06 05:27:40;;;;;;;0.28;0.25;;;;;;;11.80;55.56;99899.41;4979925;28;20125;-46
2020/12/06 05:30:05;;;;;;;2.58;0.90;;;;;;;11.77;56.41;99899.97;4993298;28;20038;-45
2020/12/06 05:32:32;;;;;;;0.68;0.47;;;;;;;11.89;54.98;99905.88;4992957;28;20092;-46
2020/12/06 05:34:58;;;;;;;1.38;0.40;;;;;;;11.91;54.45;99904.56;4993166;28;20104;-48
2020/12/06 05:37:24;;;;;;;0.60;0.43;;;;;;;11.91;53.40;99918.00;4995144;28;20050;-48
2020/12/06 05:40:00;;;;;;;5.15;1.52;;;;;;;11.83;53.78;99925.75;4992812;28;20030;-48
2020/12/06 05:42:26;;;;;;;1.23;0.57;;;;;;;11.80;54.43;99926.28;4992265;28;20064;-45
2020/12/06 05:44:56;;;;;;;7.00;0.40;;;;;;;11.99;54.76;99923.91;4992201;28;20446;-51
2020/12/06 05:47:21;;;;;;;1.77;1.13;;;;;;;11.90;54.51;99910.16;4994553;28;20108;-46
2020/12/06 05:49:48;;;;;;;0.40;0.40;;;;;;;11.70;54.73;99916.34;4997271;28;20038;-47
2020/12/06 05:52:15;;;;;;;0.60;0.30;;;;;;;11.78;54.47;99921.19;4998359;28;20543;-46
2020/12/06 05:54:40;;;;;;;4.88;0.45;;;;;;;11.75;54.50;99924.41;4997482;28;20034;-50
2020/12/06 05:57:06;;;;;;;1.13;0.30;;;;;;;11.79;54.67;99919.31;4997872;28;20077;-47
2020/12/06 05:59:33;;;;;;;0.85;0.20;;;;;;;11.96;54.17;99917.19;4998627;28;20525;-48
2020/12/06 06:01:59;;;;;;;2.67;0.50;;;;;;;11.81;54.05;99923.31;4996971;28;20045;-50
2020/12/06 06:04:26;;;;;;;0.38;0.28;;;;;;;11.77;53.50;99937.56;4999201;28;20042;-46
2020/12/06 06:06:56;;;;;;;2.78;0.57;;;;;;;11.80;54.59;99937.84;4995932;28;20038;-48
2020/12/06 06:09:25;;;;;;;4.78;0.93;;;;;;;11.76;54.52;99941.31;4997765;28;20057;-46
2020/12/06 06:12:24;;;;;;;0.30;0.28;;;;;;;11.80;55.31;99953.13;5001754;28;20030;-46
2020/12/06 06:14:52;;;;;;;1.70;0.77;;;;;;;11.75;54.72;99943.22;4991686;28;20482;-46
2020/12/06 06:17:18;;;;;;;6.35;0.55;;;;;;;11.72;54.82;99947.22;4998437;28;20038;-48
2020/12/06 06:19:44;;;;;;;2.13;1.25;;;;;;;11.85;53.40;99937.84;4992061;28;20073;-46
2020/12/06 06:22:15;;;;;;;0.10;0.10;;;;;;;11.76;53.46;99944.81;4977627;28;20405;-46
2020/12/06 06:24:41;;;;;;;0.38;0.10;;;;;;;11.73;56.90;99956.91;4995736;28;20486;-46
2020/12/06 06:27:06;;;;;;;1.35;0.55;;;;;;;11.80;52.87;99953.13;4997119;28;20112;-45
2020/12/06 06:29:32;;;;;;;1.13;0.50;;;;;;;11.76;53.16;99946.69;4998252;28;20042;-47
2020/12/06 06:31:57;;;;;;;0.30;0.20;;;;;;;11.75;53.99;99945.88;4996208;28;20511;-45
2020/12/06 06:34:30;;;;;;;0.40;0.20;;;;;;;11.71;54.71;99952.84;4998232;28;20461;-46
2020/12/06 06:36:56;;;;;;;1.27;0.85;;;;;;;11.70;54.54;99954.72;5000834;28;20034;-46
2020/12/06 06:39:24;;;;;;;6.43;0.65;;;;;;;11.76;55.17;99938.63;4998465;28;20034;-44
2020/12/06 06:42:08;;;;;;;1.65;0.57;;;;;;;11.71;55.05;99955.53;4996081;28;20121;-47
2020/12/06 06:44:36;;;;;;;1.83;0.45;;;;;;;11.83;53.39;99956.13;4990778;28;20030;-46
2020/12/06 06:47:07;;;;;;;0.98;0.52;;;;;;;11.89;53.07;99946.97;4991663;28;20045;-47
2020/12/06 06:49:55;;;;;;;0.95;0.63;;;;;;;11.88;53.06;99949.94;4995150;28;20124;-46
2020/12/06 06:52:23;;;;;;;2.72;0.80;;;;;;;11.75;52.82;99951.25;4996892;28;20447;-49
2020/12/06 06:54:52;;;;;;;1.02;0.45;;;;;;;11.81;51.81;99960.94;4995527;28;20169;-47
2020/12/06 06:57:21;;;;;;;7.47;1.50;;;;;;;11.80;52.29;99969.25;4998230;28;20217;-45
2020/12/06 06:59:47;;;;;;;4.45;0.52;;;;;;;11.80;51.85;99958.50;4988020;28;20121;-46
2020/12/06 07:02:33;;;;;;;14.50;1.10;;;;;;;11.69;52.11;99957.69;4997820;28;20034;-45
2020/12/06 07:05:05;;;;;;;1.10;0.50;;;;;;;11.63;56.39;99964.13;4992432;28;20042;-46
2020/12/06 07:07:43;;;;;;;0.20;0.17;;;;;;;11.61;50.88;99967.06;4989504;28;20042;-45
2020/12/06 07:10:16;;;;;;;3.75;0.52;;;;;;;11.70;50.80;99976.22;4991612;28;20034;-46
2020/12/06 07:12:54;;;;;;;0.90;0.35;;;;;;;11.69;53.64;99979.16;4991628;28;20453;-48
2020/12/06 07:15:21;;;;;;;2.20;0.63;;;;;;;11.67;53.78;99982.13;4991258;28;20041;-47
2020/12/06 07:17:47;;;;;;;3.03;0.40;;;;;;;11.80;52.02;99988.03;4991603;28;20046;-48
2020/12/06 07:20:15;;;;;;;9.10;2.80;;;;;;;11.72;53.98;99989.38;4991396;28;20484;-48
2020/12/06 07:22:41;;;;;;;2.35;0.65;;;;;;;11.57;55.77;100008.97;4991310;28;20073;-46
2020/12/06 07:25:08;;;;;;;2.50;1.05;;;;;;;11.77;53.89;99996.66;4991325;28;20042;-45
2020/12/06 07:27:35;;;;;;;0.93;0.50;;;;;;;11.68;52.24;99999.06;4991154;28;20129;-48
2020/12/06 07:30:03;;;;;;;5.47;0.88;;;;;;;11.71;53.61;99999.31;4991400;28;20428;-50
2020/12/06 07:32:28;;;;;;;1.77;0.63;;;;;;;11.87;51.72;100002.84;4989307;28;20553;-46
2020/12/06 07:34:54;;;;;;;1.55;1.17;;;;;;;11.88;51.88;100006.34;4991339;28;20030;-49
2020/12/06 07:37:21;;;;;;;1.27;0.65;;;;;;;11.78;51.48;100019.75;4991194;28;20087;-47
2020/12/06 07:39:48;;;;;;;2.17;0.95;;;;;;;11.72;51.24;100017.03;4991139;28;20030;-48
2020/12/06 07:42:21;;;;;;;1.75;0.50;;;;;;;11.77;55.35;100023.50;5008310;28;20125;-46
2020/12/06 07:44:49;;;;;;;2.08;0.85;;;;;;;11.76;54.14;100017.31;4972771;28;20034;-47
2020/12/06 07:47:15;;;;;;;3.03;1.02;;;;;;;11.77;53.69;100018.94;4986461;28;20767;-51
2020/12/06 07:49:48;;;;;;;1.98;0.52;;;;;;;11.64;55.24;100020.25;4985518;28;20026;-54
2020/12/06 07:52:16;;;;;;;0.73;0.55;;;;;;;11.69;53.35;100019.44;4987375;28;20182;-52
2020/12/06 07:54:58;;;;;;;2.80;0.55;;;;;;;11.63;56.62;100007.88;4985773;28;20031;-51
2020/12/06 07:57:38;;;;;;;12.15;0.88;;;;;;;11.63;54.40;100018.63;4988696;28;20116;-51
2020/12/06 08:00:12;;;;;;;0.80;0.40;;;;;;;11.67;54.25;100019.72;4987888;28;20030;-50
2020/12/06 08:02:42;;;;;;;2.95;0.80;;;;;;;11.64;52.75;100022.94;4990565;28;20034;-54
2020/12/06 08:05:12;;;;;;;1.80;0.88;;;;;;;11.61;53.79;100023.47;4988575;28;20046;-52
2020/12/06 08:07:40;;;;;;;8.52;0.70;;;;;;;11.62;55.82;100032.31;4991636;28;20467;-49
2020/12/06 08:10:12;;;;;;;0.60;0.25;;;;;;;11.68;53.17;100033.97;4993227;28;20160;-49
2020/12/06 08:12:39;;;;;;;;;;;;;;;11.63;53.15;100028.56;4988273;28;20137;-51
2020/12/06 08:15:06;;;;;;;5.50;0.85;;;;;;;11.66;53.31;100041.47;4986687;28;19937;-48
2020/12/06 08:17:48;;;;;;;2.72;0.40;;;;;;;11.62;53.57;100030.44;4987672;28;20046;-53
2020/12/06 08:20:19;;;;;;;1.75;0.85;;;;;;;11.63;54.84;100032.06;4999001;28;20113;-51
2020/12/06 08:22:52;;;;;;;1.73;1.15;;;;;;;11.61;54.25;100044.94;4983534;28;20042;-51
2020/12/06 08:25:23;;;;;;;1.35;0.32;;;;;;;11.63;54.89;100032.06;4995378;28;20044;-48
2020/12/06 08:27:50;;;;;;;1.40;0.43;;;;;;;11.61;55.38;100046.81;4982794;28;20735;-53
2020/12/06 08:30:18;;;;;;;2.35;1.02;;;;;;;11.64;53.62;100035.53;4991204;28;20046;-48
2020/12/06 08:33:10;;;;;;;2.05;1.25;;;;;;;11.66;55.16;100044.97;4979359;28;20062;-50
2020/12/06 08:35:36;;;;;;;;;;;;;;;11.66;55.28;100039.59;4993942;28;20153;-48
2020/12/06 08:38:22;;;;;;;9.07;1.05;;;;;;;11.72;54.95;100043.88;4984965;28;19921;-52
2020/12/06 08:41:11;;;;;;;1.17;0.60;;;;;;;11.69;54.19;100049.81;4988879;28;20640;-53
2020/12/06 08:43:45;;;;;;;4.72;0.50;;;;;;;11.71;55.59;100062.94;4985019;28;20767;-51
2020/12/06 08:46:13;;;;;;;2.40;0.85;;;;;;;11.65;55.69;100046.03;4990323;28;20511;-51
2020/12/06 08:48:40;;;;;;;12.27;0.60;;;;;;;11.66;54.58;100055.69;4987693;28;20494;-48
2020/12/06 08:51:05;;;;;;;3.25;1.13;;;;;;;11.70;55.07;100061.34;4999886;28;20821;-49
2020/12/06 08:53:44;;;;;;;5.60;0.80;;;;;;;11.72;54.65;100068.06;4991608;28;20041;-51
2020/12/06 08:56:29;;;;;;;0.43;0.13;;;;;;;11.70;54.86;100069.41;4985446;28;20097;-53
2020/12/06 08:58:55;;;;;;;1.42;0.80;;;;;;;11.76;54.99;100078.28;4984559;28;20121;-47
2020/12/06 09:01:21;;;;;;;2.38;0.90;;;;;;;11.66;57.13;100081.75;4989910;28;20093;-49
2020/12/06 09:03:47;;;;;;;3.40;0.88;;;;;;;11.69;56.23;100081.22;4985034;28;20046;-50
2020/12/06 09:06:17;;;;;;;1.83;0.55;;;;;;;11.73;55.10;100085.81;4993316;28;20031;-51
2020/12/06 09:08:43;;;;;;;1.63;0.65;;;;;;;11.73;56.14;100085.81;4986398;28;20054;-50
2020/12/06 09:11:20;;;;;;;0.88;0.30;;;;;;;11.77;56.52;100087.97;4987038;28;20030;-52
2020/12/06 09:13:46;;;;;;;2.10;0.85;;;;;;;11.80;55.43;100082.06;4982622;28;20498;-52
2020/12/06 09:16:12;;;;;;;1.88;0.60;;;;;;;11.81;54.90;100089.06;4990033;28;20092;-48
2020/12/06 09:18:39;;;;;;;5.43;1.85;;;;;;;11.77;54.92;100082.59;4989818;28;20061;-51
2020/12/06 09:21:06;;;;;;;2.50;0.47;;;;;;;11.75;56.27;100084.75;4989034;28;20416;-47
2020/12/06 09:23:32;;;;;;;4.63;0.50;;;;;;;11.86;56.41;100097.13;4984543;28;20046;-51
2020/12/06 09:25:59;;;;;;;0.40;0.30;;;;;;;11.83;57.01;100103.03;4986886;28;20062;-52
2020/12/06 09:28:25;;;;;;;5.25;0.40;;;;;;;11.86;54.96;100097.13;4993386;28;20046;-50
2020/12/06 09:30:50;;;;;;;0.57;0.35;;;;;;;11.88;57.28;100105.72;4991991;28;20056;-51
2020/12/06 09:33:16;;;;;;;2.17;0.90;;;;;;;11.84;53.05;100110.81;4989744;28;20043;-51
2020/12/06 09:35:41;;;;;;;5.20;0.70;;;;;;;11.88;53.59;100103.03;4989075;28;20038;-53
2020/12/06 09:38:07;;;;;;;4.28;1.15;;;;;;;12.07;53.51;100111.47;4990181;28;20046;-47
2020/12/06 09:40:32;;;;;;;0.35;0.25;;;;;;;11.95;53.63;100106.31;4989118;28;20490;-51
2020/12/06 09:42:57;;;;;;;2.00;0.85;;;;;;;11.96;54.71;100117.91;4989325;28;20210;-52
2020/12/06 09:45:23;;;;;;;1.00;0.25;;;;;;;11.97;52.77;100116.81;4989826;28;20463;-51
2020/12/06 09:47:48;;;;;;;7.75;0.85;;;;;;;11.97;52.84;100104.16;4989931;28;20054;-47
2020/12/06 09:50:14;;;;;;;1.13;0.70;;;;;;;11.95;53.33;100109.00;4988583;28;20038;-49
2020/12/06 09:52:39;;;;;;;1.17;0.32;;;;;;;11.90;51.64;100099.06;4989819;28;20039;-50
2020/12/06 09:55:05;;;;;;;2.92;1.08;;;;;;;11.91;56.20;100115.97;4989014;28;20072;-47
2020/12/06 09:57:30;;;;;;;0.90;0.88;;;;;;;11.96;52.92;100112.53;4989582;28;20042;-49
2020/12/06 09:59:56;;;;;;;7.90;1.55;;;;;;;12.08;51.61;100103.16;4999563;28;20026;-50
2020/12/06 10:02:21;;;;;;;6.47;1.80;;;;;;;12.15;51.68;100105.59;4991688;28;20057;-50
2020/12/06 10:04:46;;;;;;;9.15;1.75;;;;;;;12.17;52.53;100110.69;4988146;28;20042;-53
2020/12/06 10:07:12;;;;;;;2.67;0.77;;;;;;;12.10;53.70;100114.44;4988284;28;20042;-51
2020/12/06 10:09:37;;;;;;;0.35;0.20;;;;;;;12.01;57.22;100116.03;4991379;28;20091;-46
2020/12/06 10:12:03;;;;;;;1.85;0.38;;;;;;;12.09;53.33;100123.56;4989227;28;20137;-52
2020/12/06 10:14:28;;;;;;;1.60;0.98;;;;;;;12.01;56.61;100125.94;4994569;28;20029;-51
2020/12/06 10:16:54;;;;;;;2.55;1.40;;;;;;;12.12;53.41;100124.13;4983557;28;20050;-52
2020/12/06 10:19:20;;;;;;;1.58;0.52;;;;;;;12.09;54.69;100136.19;4995155;28;20049;-48
2020/12/06 10:21:45;;;;;;;1.10;0.30;;;;;;;12.03;57.10;100129.19;4998746;28;20482;-46
2020/12/06 10:24:11;;;;;;;1.27;0.50;;;;;;;12.06;53.08;100125.97;5001520;28;20044;-50
2020/12/06 10:26:36;;;;;;;2.35;0.75;;;;;;;12.06;54.05;100136.72;4997387;28;20042;-48
2020/12/06 10:29:02;;;;;;;2.33;0.85;;;;;;;12.07;52.57;100130.28;4993024;28;20034;-52
2020/12/06 10:31:27;;;;;;;0.98;0.40;;;;;;;12.02;54.61;100123.00;4993460;28;20030;-50
2020/12/06 10:33:52;;;;;;;3.22;1.80;;;;;;;12.18;52.26;100123.03;4989127;28;20041;-51
2020/12/06 10:36:18;;;;;;;1.85;0.20;;;;;;;12.15;54.15;100121.72;4988827;28;20400;-50
2020/12/06 10:38:43;;;;;;;2.35;1.25;;;;;;;12.26;55.47;100111.78;4988532;28;20038;-48
2020/12/06 10:41:12;;;;;;;5.10;1.55;;;;;;;12.33;52.22;100106.97;4989020;28;20100;-51
2020/12/06 10:43:37;;;;;;;3.25;1.33;;;;;;;12.37;52.14;100097.28;4988659;28;20042;-47
2020/12/06 10:46:03;;;;;;;3.08;1.35;;;;;;;12.53;52.07;100100.00;4988674;28;20038;-51
2020/12/06 10:48:28;;;;;;;3.30;1.75;;;;;;;12.56;52.35;100102.16;4988995;28;20161;-53
2020/12/06 10:50:54;;;;;;;2.53;1.33;;;;;;;12.43;53.99;100106.16;4988807;28;20045;-50
2020/12/06 10:53:20;;;;;;;2.20;1.23;;;;;;;12.40;53.18;100107.50;4988170;28;20042;-47
2020/12/06 10:55:45;;;;;;;1.17;0.70;;;;;;;12.31;54.43;100098.34;4988278;28;20614;-49
2020/12/06 10:58:11;;;;;;;4.32;2.00;;;;;;;12.40;52.04;100102.13;4988195;28;20034;-51
2020/12/06 11:00:36;;;;;;;4.22;1.10;;;;;;;12.35;51.39;100098.63;4988811;28;20467;-51
2020/12/06 11:03:02;;;;;;;3.00;1.60;;;;;;;12.30;52.75;100108.28;4992969;28;20042;-51
2020/12/06 11:05:27;;;;;;;1.15;0.63;;;;;;;12.32;54.79;100099.97;4995478;28;20124;-50
2020/12/06 11:07:53;;;;;;;1.05;0.57;;;;;;;12.41;50.61;100093.00;4992407;28;20472;-48
2020/12/06 11:10:18;;;;;;;5.47;0.98;;;;;;;12.39;50.41;100087.06;4988955;28;20058;-48
2020/12/06 11:12:43;;;;;;;3.80;1.42;;;;;;;12.39;51.39;100076.31;4987996;28;20046;-60
2020/12/06 11:15:09;;;;;;;2.63;1.55;;;;;;;12.40;50.86;100080.63;4988400;28;20053;-53
2020/12/06 11:17:34;;;;;;;3.25;1.30;;;;;;;12.48;52.00;100077.41;4987963;28;20026;-47
2020/12/06 11:20:00;;;;;;;3.65;0.82;;;;;;;12.52;50.66;100080.38;4988667;28;20133;-50
2020/12/06 11:22:26;;;;;;;5.03;2.13;;;;;;;12.51;51.13;100068.00;4988225;28;20045;-46
2020/12/06 11:24:52;;;;;;;5.15;0.98;;;;;;;12.48;51.58;100069.34;4988160;28;20514;-52
2020/12/06 11:27:17;;;;;;;2.40;1.10;;;;;;;12.41;50.27;100066.13;4987936;28;20045;-50
2020/12/06 11:29:43;;;;;;;8.77;1.77;;;;;;;12.48;51.54;100061.28;4988388;28;20034;-49
2020/12/06 11:32:08;;;;;;;2.80;1.10;;;;;;;12.52;51.83;100055.34;4987691;28;20030;-50